createdAt,value
2023-07-05T00:01:24.606Z,24.43
2023-07-05T00:04:29.914Z,24.38
2023-07-05T00:07:32.112Z,24.43
2023-07-05T00:13:36.740Z,24.34
2023-07-05T00:16:39.194Z,24.26
2023-07-05T00:19:42.530Z,24.30
2023-07-05T00:22:44.737Z,24.30
2023-07-05T00:25:46.919Z,24.27
2023-07-05T00:28:50.533Z,24.23
2023-07-05T00:31:53.073Z,24.23
2023-07-05T00:34:55.355Z,24.27
2023-07-05T00:37:57.563Z,24.29
2023-07-05T00:40:59.811Z,24.26
2023-07-05T00:44:02.106Z,24.23
2023-07-05T00:47:27.056Z,24.12
2023-07-05T00:50:37.836Z,23.99
2023-07-05T00:53:40.046Z,24.01
2023-07-05T00:56:58.986Z,24.01
2023-07-05T01:00:06.180Z,23.96
2023-07-05T01:03:12.124Z,23.99
2023-07-05T01:06:15.298Z,23.95
2023-07-05T01:09:18.714Z,24.01
2023-07-05T01:12:48.357Z,24.02
2023-07-05T01:16:03.491Z,23.95
2023-07-05T01:19:38.089Z,24.08
2023-07-05T01:23:14.310Z,23.96
2023-07-05T01:26:35.126Z,23.96
2023-07-05T01:30:08.844Z,24.01
2023-07-05T01:33:15.816Z,24.02
2023-07-05T01:36:18.497Z,23.93
2023-07-05T01:39:20.659Z,23.81
2023-07-05T01:42:27.704Z,23.80
2023-07-05T01:45:41.133Z,23.85
2023-07-05T01:48:59.339Z,23.82
2023-07-05T01:52:17.167Z,23.77
2023-07-05T01:55:27.852Z,23.72
2023-07-05T01:58:32.548Z,23.69
2023-07-05T02:01:35.553Z,23.65
2023-07-05T02:04:39.355Z,23.64
2023-07-05T02:07:44.361Z,23.61
2023-07-05T02:10:46.563Z,23.57
2023-07-05T02:13:48.834Z,23.52
2023-07-05T02:16:51.025Z,23.51
2023-07-05T02:19:53.416Z,23.50
2023-07-05T02:22:58.561Z,23.45
2023-07-05T02:26:05.650Z,23.44
2023-07-05T02:29:07.867Z,23.44
2023-07-05T02:32:10.908Z,23.36
2023-07-05T02:35:13.202Z,23.36
2023-07-05T02:38:15.640Z,23.43
2023-07-05T02:41:17.857Z,23.43
2023-07-05T02:44:20.024Z,23.34
2023-07-05T02:47:22.566Z,23.41
2023-07-05T02:50:24.748Z,23.42
2023-07-05T02:53:29.845Z,23.38
2023-07-05T02:56:32.058Z,23.36
2023-07-05T02:59:34.255Z,23.39
2023-07-05T03:02:36.514Z,23.47
2023-07-05T03:05:38.769Z,23.39
2023-07-05T03:08:40.947Z,23.34
2023-07-05T03:11:43.124Z,23.34
2023-07-05T03:14:45.301Z,23.31
2023-07-05T03:17:47.587Z,23.30
2023-07-05T03:20:50.074Z,23.32
2023-07-05T03:23:52.296Z,23.31
2023-07-05T03:26:54.664Z,23.37
2023-07-05T03:29:57.148Z,23.40
2023-07-05T03:32:59.989Z,23.52
2023-07-05T03:36:12.183Z,23.58
2023-07-05T03:39:17.640Z,23.71
2023-07-05T03:42:19.928Z,23.85
2023-07-05T03:45:22.093Z,23.69
2023-07-05T03:48:24.674Z,23.84
2023-07-05T03:51:27.016Z,23.83
2023-07-05T03:54:29.457Z,23.78
2023-07-05T03:57:31.704Z,23.87
2023-07-05T04:00:33.919Z,23.83
2023-07-05T04:03:36.548Z,24.37
2023-07-05T04:06:38.826Z,25.33
2023-07-05T04:09:41.036Z,25.93
2023-07-05T04:12:43.500Z,26.26
2023-07-05T04:15:45.721Z,26.54
2023-07-05T04:18:51.066Z,26.85
2023-07-05T04:21:53.228Z,26.18
2023-07-05T04:24:55.476Z,25.99
2023-07-05T04:27:57.651Z,25.80
2023-07-05T04:31:00.382Z,26.14
2023-07-05T04:34:02.977Z,25.97
2023-07-05T04:37:05.513Z,25.92
2023-07-05T04:40:08.347Z,26.34
2023-07-05T04:43:10.616Z,26.82
2023-07-05T04:46:12.792Z,27.17
2023-07-05T04:49:15.029Z,27.24
2023-07-05T04:52:17.223Z,27.30
2023-07-05T04:55:19.427Z,27.38
2023-07-05T04:58:22.496Z,27.47
2023-07-05T05:01:24.822Z,27.30
2023-07-05T05:04:27.154Z,27.44
2023-07-05T05:07:29.406Z,27.27
2023-07-05T05:10:31.599Z,27.22
2023-07-05T05:13:35.647Z,26.86
2023-07-05T05:16:38.038Z,26.76
2023-07-05T05:19:40.408Z,26.86
2023-07-05T05:22:42.706Z,27.00
2023-07-05T05:25:45.909Z,26.71
2023-07-05T05:28:48.042Z,26.50
2023-07-05T05:31:50.934Z,26.74
2023-07-05T05:34:53.188Z,26.71
2023-07-05T05:37:55.351Z,26.61
2023-07-05T05:41:05.838Z,26.53
2023-07-05T05:44:08.029Z,26.64
2023-07-05T05:47:10.248Z,26.89
2023-07-05T05:50:12.546Z,27.17
2023-07-05T05:53:14.844Z,27.29
2023-07-05T05:56:17.043Z,27.40
2023-07-05T05:59:19.244Z,27.45
2023-07-05T06:02:21.777Z,27.20
2023-07-05T06:05:25.544Z,27.40
2023-07-05T06:08:28.864Z,27.53
2023-07-05T06:11:31.173Z,27.74
2023-07-05T06:14:33.387Z,27.85
2023-07-05T06:17:35.638Z,27.91
2023-07-05T06:20:37.903Z,27.98
2023-07-05T06:23:40.228Z,28.02
2023-07-05T06:26:42.484Z,28.14
2023-07-05T06:29:44.668Z,28.22
2023-07-05T06:32:46.941Z,28.05
2023-07-05T06:35:50.325Z,27.98
2023-07-05T06:38:52.870Z,28.11
2023-07-05T06:41:55.095Z,28.23
2023-07-05T06:44:57.353Z,28.29
2023-07-05T06:47:59.707Z,28.20
2023-07-05T06:51:02.046Z,28.19
2023-07-05T06:54:04.298Z,28.20
2023-07-05T06:57:07.008Z,28.24
2023-07-05T07:00:10.536Z,28.33
2023-07-05T07:03:12.866Z,28.38
2023-07-05T07:06:15.013Z,28.45
2023-07-05T07:09:17.264Z,28.45
2023-07-05T07:12:19.469Z,28.54
2023-07-05T07:15:21.786Z,28.41
2023-07-05T07:18:25.547Z,28.42
2023-07-05T07:21:27.773Z,28.52
2023-07-05T07:24:30.174Z,28.50
2023-07-05T07:27:32.582Z,28.52
2023-07-05T07:30:34.804Z,28.32
2023-07-05T07:33:37.173Z,28.47
2023-07-05T07:36:39.353Z,28.43
2023-07-05T07:39:41.515Z,28.58
2023-07-05T07:42:43.736Z,28.69
2023-07-05T07:45:46.003Z,28.73
2023-07-05T07:48:50.241Z,28.69
2023-07-05T07:51:52.540Z,28.73
2023-07-05T07:54:56.510Z,28.79
2023-07-05T07:57:58.695Z,28.88
2023-07-05T08:01:17.843Z,28.89
2023-07-05T08:04:20.408Z,28.88
2023-07-05T08:07:22.676Z,28.81
2023-07-05T08:10:25.046Z,28.88
2023-07-05T08:13:27.285Z,28.92
2023-07-05T08:16:29.938Z,28.86
2023-07-05T08:19:32.433Z,28.93
2023-07-05T08:22:34.749Z,28.80
2023-07-05T08:25:38.317Z,28.83
2023-07-05T08:28:40.584Z,28.88
2023-07-05T08:31:43.091Z,28.92
2023-07-05T08:34:45.460Z,28.92
2023-07-05T08:37:50.027Z,28.89
2023-07-05T08:40:53.943Z,28.96
2023-07-05T08:43:59.785Z,29.04
2023-07-05T08:47:03.960Z,29.02
2023-07-05T08:50:32.041Z,28.96
2023-07-05T08:53:48.442Z,29.04
2023-07-05T08:57:03.087Z,29.07
2023-07-05T09:00:12.477Z,29.20
2023-07-05T09:03:15.587Z,29.19
2023-07-05T09:06:26.076Z,29.23
2023-07-05T09:09:40.260Z,29.29
2023-07-05T09:12:53.675Z,29.18
2023-07-05T09:16:18.093Z,29.32
2023-07-05T09:19:33.501Z,29.33
2023-07-05T09:22:38.165Z,29.29
2023-07-05T09:25:54.398Z,29.19
2023-07-05T09:29:28.258Z,29.33
2023-07-05T09:32:41.297Z,29.38
2023-07-05T09:35:45.299Z,29.33
2023-07-05T09:38:51.107Z,29.21
2023-07-05T09:41:55.242Z,29.15
2023-07-05T09:44:57.582Z,29.18
2023-07-05T09:48:06.278Z,29.22
2023-07-05T09:51:09.534Z,29.26
2023-07-05T09:54:15.537Z,29.25
2023-07-05T09:57:25.832Z,29.23
2023-07-05T10:00:33.979Z,29.32
2023-07-05T10:03:37.718Z,29.38
2023-07-05T10:06:41.677Z,29.37
2023-07-05T10:10:06.492Z,29.50
2023-07-05T10:13:26.274Z,29.50
2023-07-05T10:16:45.225Z,29.39
2023-07-05T10:19:52.489Z,29.51
2023-07-05T10:23:00.087Z,29.42
2023-07-05T10:26:04.922Z,29.40
2023-07-05T10:29:11.739Z,29.47
2023-07-05T10:32:19.678Z,29.54
2023-07-05T10:35:22.098Z,29.62
2023-07-05T10:38:27.410Z,29.63
2023-07-05T10:41:34.134Z,29.78
2023-07-05T10:44:37.669Z,29.86
2023-07-05T10:47:40.955Z,29.84
2023-07-05T10:50:43.547Z,29.89
2023-07-05T10:53:52.000Z,29.91
2023-07-05T10:56:55.075Z,29.91
2023-07-05T11:00:02.254Z,29.94
2023-07-05T11:03:25.021Z,29.86
2023-07-05T11:06:28.632Z,29.77
2023-07-05T11:09:36.214Z,29.84
2023-07-05T11:12:38.545Z,29.91
2023-07-05T11:15:40.983Z,29.86
2023-07-05T11:18:43.223Z,29.82
2023-07-05T11:21:50.626Z,29.87
2023-07-05T11:24:52.861Z,29.94
2023-07-05T11:27:57.659Z,30.01
2023-07-05T11:31:00.505Z,30.10
2023-07-05T11:34:24.447Z,30.15
2023-07-05T11:37:26.593Z,30.17
2023-07-05T11:41:00.688Z,30.15
2023-07-05T11:44:04.252Z,30.18
2023-07-05T11:47:11.496Z,30.16
2023-07-05T11:50:16.002Z,30.01
2023-07-05T11:53:18.336Z,30.23
2023-07-05T11:56:20.780Z,30.34
2023-07-05T11:59:24.638Z,30.34
2023-07-05T12:02:39.419Z,30.46
2023-07-05T12:05:42.271Z,30.61
2023-07-05T12:08:48.000Z,30.60
2023-07-05T12:11:56.809Z,30.78
2023-07-05T12:14:59.099Z,30.86
2023-07-05T12:18:03.686Z,30.91
2023-07-05T12:21:06.962Z,31.03
2023-07-05T12:24:11.712Z,31.10
2023-07-05T12:27:29.787Z,31.19
2023-07-05T12:30:39.809Z,31.27
2023-07-05T12:33:42.064Z,31.29
2023-07-05T12:36:44.200Z,31.38
2023-07-05T12:39:46.454Z,31.33
2023-07-05T12:42:50.857Z,31.38
2023-07-05T12:45:53.049Z,31.44
2023-07-05T12:48:55.380Z,31.37
2023-07-05T12:51:59.329Z,31.27
2023-07-05T12:55:01.566Z,31.41
2023-07-05T12:58:07.278Z,31.50
2023-07-05T13:01:13.278Z,31.52
2023-07-05T13:04:18.694Z,31.42
2023-07-05T13:07:24.168Z,31.48
2023-07-05T13:10:26.914Z,31.61
2023-07-05T13:13:35.257Z,31.70
2023-07-05T13:16:57.829Z,31.75
2023-07-05T13:20:14.628Z,31.85
2023-07-05T13:23:28.533Z,31.86
2023-07-05T13:26:33.650Z,31.93
2023-07-05T13:29:37.288Z,32.03
2023-07-05T13:32:46.977Z,32.16
2023-07-05T13:35:49.780Z,32.19
2023-07-05T13:38:52.722Z,32.32
2023-07-05T13:41:55.844Z,32.35
2023-07-05T13:44:58.042Z,32.66
2023-07-05T13:48:01.270Z,32.82
2023-07-05T13:51:03.772Z,33.07
2023-07-05T13:54:05.950Z,33.31
2023-07-05T13:57:17.561Z,33.49
2023-07-05T14:00:20.079Z,33.58
2023-07-05T14:03:24.999Z,33.79
2023-07-05T14:06:34.761Z,33.84
2023-07-05T14:09:38.546Z,33.85
2023-07-05T14:12:40.877Z,33.91
2023-07-05T14:15:44.904Z,33.91
2023-07-05T14:18:47.205Z,33.74
2023-07-05T14:21:49.651Z,33.55
2023-07-05T14:24:52.463Z,33.29
2023-07-05T14:27:54.649Z,33.24
2023-07-05T14:30:59.540Z,33.12
2023-07-05T14:34:01.821Z,33.15
2023-07-05T14:37:04.499Z,33.09
2023-07-05T14:40:07.454Z,32.95
2023-07-05T14:43:11.437Z,33.04
2023-07-05T14:46:13.703Z,33.04
2023-07-05T14:49:15.998Z,32.92
2023-07-05T14:52:18.329Z,32.98
2023-07-05T14:55:22.953Z,33.01
2023-07-05T14:58:25.444Z,33.03
2023-07-05T15:01:27.741Z,33.02
2023-07-05T15:04:30.070Z,33.05
2023-07-05T15:07:32.296Z,33.10
2023-07-05T15:10:35.006Z,33.12
2023-07-05T15:13:43.454Z,33.09
2023-07-05T15:16:45.791Z,33.16
2023-07-05T15:19:50.583Z,33.19
2023-07-05T15:22:52.893Z,33.33
2023-07-05T15:25:56.232Z,33.34
2023-07-05T15:29:01.119Z,33.36
2023-07-05T15:32:03.501Z,33.37
2023-07-05T15:35:07.912Z,33.38
2023-07-05T15:38:10.097Z,33.36
2023-07-05T15:41:13.483Z,33.34
2023-07-05T15:44:17.520Z,33.40
2023-07-05T15:47:22.187Z,33.38
2023-07-05T15:50:28.748Z,33.39
2023-07-05T15:53:31.085Z,33.43
2023-07-05T15:56:34.159Z,33.33
2023-07-05T15:59:36.608Z,33.32
2023-07-05T16:02:42.269Z,33.44
2023-07-05T16:05:44.667Z,33.35
2023-07-05T16:08:48.464Z,33.29
2023-07-05T16:11:50.781Z,33.22
2023-07-05T16:14:52.963Z,33.13
2023-07-05T16:17:55.265Z,33.22
2023-07-05T16:20:59.515Z,33.25
2023-07-05T16:24:01.740Z,33.23
2023-07-05T16:27:06.071Z,33.20
2023-07-05T16:30:09.919Z,33.14
2023-07-05T16:33:12.894Z,33.17
2023-07-05T16:36:22.024Z,33.05
2023-07-05T16:39:24.250Z,33.18
2023-07-05T16:42:31.831Z,33.10
2023-07-05T16:45:38.246Z,33.08
2023-07-05T16:48:40.946Z,32.99
2023-07-05T16:51:43.308Z,32.91
2023-07-05T16:54:45.558Z,32.93
2023-07-05T16:57:47.757Z,32.98
2023-07-05T17:01:02.037Z,32.95
2023-07-05T17:04:04.828Z,32.88
2023-07-05T17:07:07.225Z,32.77
2023-07-05T17:10:09.477Z,32.74
2023-07-05T17:13:11.648Z,32.68
2023-07-05T17:16:16.233Z,32.69
2023-07-05T17:19:18.628Z,32.57
2023-07-05T17:22:20.841Z,32.56
2023-07-05T17:25:23.174Z,32.50
2023-07-05T17:28:27.402Z,32.41
2023-07-05T17:31:29.849Z,32.39
2023-07-05T17:34:32.388Z,32.19
2023-07-05T17:37:35.662Z,32.09
2023-07-05T17:40:38.513Z,31.99
2023-07-05T17:43:40.725Z,31.94
2023-07-05T17:46:44.546Z,31.85
2023-07-05T17:49:46.815Z,31.78
2023-07-05T17:52:49.513Z,31.63
2023-07-05T17:55:54.740Z,31.55
2023-07-05T17:58:57.635Z,31.49
2023-07-05T18:01:59.873Z,31.42
2023-07-05T18:05:02.238Z,31.27
2023-07-05T18:08:04.747Z,31.19
2023-07-05T18:11:07.368Z,31.18
2023-07-05T18:14:09.586Z,31.11
2023-07-05T18:17:12.283Z,31.08
2023-07-05T18:20:16.097Z,30.99
2023-07-05T18:23:18.824Z,30.92
2023-07-05T18:26:22.890Z,30.79
2023-07-05T18:29:25.058Z,30.81
2023-07-05T18:32:27.409Z,30.78
2023-07-05T18:35:29.688Z,30.66
2023-07-05T18:38:32.617Z,30.65
2023-07-05T18:41:34.836Z,30.50
2023-07-05T18:44:38.609Z,30.44
2023-07-05T18:47:40.882Z,30.42
2023-07-05T18:50:48.861Z,30.36
2023-07-05T18:53:51.095Z,30.23
2023-07-05T18:56:53.441Z,30.21
2023-07-05T18:59:55.702Z,30.11
2023-07-05T19:02:57.896Z,30.14
2023-07-05T19:06:04.851Z,30.08
2023-07-05T19:09:09.001Z,29.94
2023-07-05T19:12:13.309Z,29.92
2023-07-05T19:15:15.992Z,29.83
2023-07-05T19:18:18.859Z,29.88
2023-07-05T19:21:21.320Z,29.81
2023-07-05T19:24:24.265Z,29.66
2023-07-05T19:27:26.579Z,29.72
2023-07-05T19:30:30.334Z,29.64
2023-07-05T19:33:33.566Z,29.61
2023-07-05T19:36:35.813Z,29.59
2023-07-05T19:39:38.019Z,29.53
2023-07-05T19:42:40.413Z,29.49
2023-07-05T19:45:42.932Z,29.40
2023-07-05T19:48:45.125Z,29.44
2023-07-05T19:51:47.322Z,29.34
2023-07-05T19:54:49.480Z,29.29
2023-07-05T19:57:51.691Z,29.30
2023-07-05T20:00:54.460Z,29.26
2023-07-05T20:03:56.714Z,29.17
2023-07-05T20:06:58.917Z,29.17
2023-07-05T20:10:02.314Z,29.19
2023-07-05T20:13:05.129Z,29.11
2023-07-05T20:16:07.942Z,29.11
2023-07-05T20:19:10.156Z,28.98
2023-07-05T20:22:12.322Z,28.99
2023-07-05T20:25:14.593Z,28.88
2023-07-05T20:28:19.979Z,28.85
2023-07-05T20:31:22.581Z,28.80
2023-07-05T20:34:25.066Z,28.69
2023-07-05T20:37:27.322Z,28.62
2023-07-05T20:40:31.315Z,28.55
2023-07-05T20:43:33.534Z,28.50
2023-07-05T20:46:35.831Z,28.47
2023-07-05T20:49:39.833Z,28.40
2023-07-05T20:52:42.742Z,28.33
2023-07-05T20:55:45.009Z,28.30
2023-07-05T20:58:48.040Z,28.31
2023-07-05T21:01:50.388Z,28.27
2023-07-05T21:04:52.671Z,28.30
2023-07-05T21:07:55.064Z,28.21
2023-07-05T21:10:57.273Z,28.13
2023-07-05T21:13:59.774Z,28.10
2023-07-05T21:17:02.179Z,28.10
2023-07-05T21:20:04.806Z,28.09
2023-07-05T21:23:06.962Z,27.98
2023-07-05T21:26:10.639Z,28.00
2023-07-05T21:29:12.834Z,27.92
2023-07-05T21:32:15.024Z,27.84
2023-07-05T21:35:18.589Z,27.83
2023-07-05T21:38:20.800Z,27.83
2023-07-05T21:41:23.050Z,27.82
2023-07-05T21:44:25.286Z,27.77
2023-07-05T21:47:27.546Z,27.72
2023-07-05T21:50:30.117Z,27.72
2023-07-05T21:53:32.262Z,27.70
2023-07-05T21:56:34.473Z,27.67
2023-07-05T21:59:36.749Z,27.61
2023-07-05T22:02:38.983Z,27.65
2023-07-05T22:05:41.330Z,27.64
2023-07-05T22:08:43.530Z,27.75
2023-07-05T22:11:46.715Z,27.69
2023-07-05T22:14:56.326Z,27.57
2023-07-05T22:18:04.379Z,27.49
2023-07-05T22:21:07.468Z,27.52
2023-07-05T22:24:09.750Z,27.39
2023-07-05T22:27:11.945Z,27.39
2023-07-05T22:30:16.038Z,27.37
2023-07-05T22:33:19.625Z,27.31
2023-07-05T22:36:22.644Z,27.23
2023-07-05T22:39:24.955Z,27.25
2023-07-05T22:42:27.464Z,27.18
2023-07-05T22:45:29.938Z,27.15
2023-07-05T22:48:34.144Z,27.18
2023-07-05T22:51:39.364Z,27.23
2023-07-05T22:54:41.573Z,27.34
2023-07-05T22:57:44.218Z,27.32
2023-07-05T23:00:49.945Z,27.31
2023-07-05T23:03:54.743Z,27.36
2023-07-05T23:06:56.967Z,27.25
2023-07-05T23:09:59.123Z,27.34
2023-07-05T23:13:01.581Z,27.24
2023-07-05T23:16:05.207Z,27.29
2023-07-05T23:19:08.314Z,27.27
2023-07-05T23:22:14.920Z,27.25
2023-07-05T23:25:17.383Z,27.26
2023-07-05T23:28:20.578Z,27.19
2023-07-05T23:31:27.717Z,27.22
2023-07-05T23:34:30.526Z,27.21
2023-07-05T23:37:32.686Z,27.20
2023-07-05T23:40:36.291Z,27.23
2023-07-05T23:43:40.207Z,27.17
2023-07-05T23:46:42.482Z,27.13
2023-07-05T23:49:45.505Z,27.25
2023-07-05T23:52:47.676Z,27.21
2023-07-05T23:55:54.348Z,27.22
2023-07-05T23:58:57.522Z,27.19
